Time;durP1;ratioP1;P1;durP2;ratioP2;P2;SDS_P1;SDS_P2;PMS_P1;PMS_P2;Temp;Humidity;BMP_temperature;BMP_pressure;BME280_temperature;BME280_humidity;BME280_pressure;Samples;Min_cycle;Max_cycle;Signal;HPM_P1;HPM_P2
2021/03/21 00:00:31;;;;;;;10.35;4.88;;;;;;;2.10;100.00;97517.94;4997677;28;20026;-85
2021/03/21 00:02:57;;;;;;;5.55;3.53;;;;;;;2.17;100.00;97506.31;4997095;28;20465;-85
2021/03/21 00:05:23;;;;;;;1.33;1.23;;;;;;;2.04;100.00;97473.28;4997525;28;20028;-85
2021/03/21 00:07:54;;;;;;;2.45;2.25;;;;;;;2.07;100.00;97471.44;4997594;28;20025;-86
2021/03/21 00:10:19;;;;;;;1.38;1.27;;;;;;;2.15;100.00;97479.13;4997222;28;20025;-85
2021/03/21 00:12:45;;;;;;;1.67;1.58;;;;;;;2.14;100.00;97470.34;4997363;28;20116;-85
2021/03/21 00:15:11;;;;;;;1.75;1.25;;;;;;;2.16;100.00;97470.28;4996971;28;20052;-84
2021/03/21 00:17:36;;;;;;;2.22;2.13;;;;;;;2.11;100.00;97485.41;4996944;28;20103;-84
2021/03/21 00:20:05;;;;;;;2.80;2.25;;;;;;;2.14;100.00;97493.22;4997296;28;20528;-84
2021/03/21 00:22:30;;;;;;;6.20;2.70;;;;;;;2.08;100.00;97490.78;4996955;28;20029;-86
2021/03/21 00:24:56;;;;;;;3.33;2.92;;;;;;;2.12;100.00;97485.34;4997260;28;20083;-86
2021/03/21 00:27:21;;;;;;;3.15;2.17;;;;;;;2.07;100.00;97482.00;4997128;28;20031;-85
2021/03/21 00:29:47;;;;;;;2.95;1.70;;;;;;;2.13;100.00;97492.34;5013662;28;20082;-86
2021/03/21 00:32:12;;;;;;;2.55;2.33;;;;;;;2.09;100.00;97476.69;5013545;28;20044;-86
2021/03/21 00:34:38;;;;;;;2.50;2.30;;;;;;;2.14;100.00;97486.19;5013523;28;20571;-86
2021/03/21 00:37:05;;;;;;;1.77;1.67;;;;;;;2.09;100.00;97482.78;4997050;28;20025;-86
2021/03/21 00:39:30;;;;;;;6.05;3.95;;;;;;;2.15;100.00;97473.84;4996990;28;20037;-86
2021/03/21 00:41:56;;;;;;;2.28;2.08;;;;;;;2.17;100.00;97461.47;4997408;28;20026;-86
2021/03/21 00:44:21;;;;;;;3.60;2.58;;;;;;;2.14;100.00;97453.66;5000287;28;20065;-83
2021/03/21 00:46:47;;;;;;;3.03;2.22;;;;;;;2.15;100.00;97466.78;5034529;28;20068;-86
2021/03/21 00:49:12;;;;;;;2.58;2.38;;;;;;;2.10;100.00;97446.72;5017044;28;20040;-86
2021/03/21 00:51:38;;;;;;;9.45;2.60;;;;;;;2.17;100.00;97458.84;5000515;28;20128;-85
2021/03/21 00:54:04;;;;;;;4.43;2.83;;;;;;;2.13;100.00;97433.44;5000421;28;20037;-84
2021/03/21 00:56:32;;;;;;;1.63;1.52;;;;;;;2.12;100.00;97453.69;5000348;28;20026;-84
2021/03/21 00:58:58;;;;;;;6.63;3.60;;;;;;;2.15;100.00;97456.22;5000417;28;20503;-84
2021/03/21 01:01:25;;;;;;;4.95;2.67;;;;;;;2.13;100.00;97457.19;5000262;28;20033;-84
2021/03/21 01:03:50;;;;;;;3.35;1.58;;;;;;;2.15;100.00;97463.31;5000391;28;20120;-86
2021/03/21 01:06:16;;;;;;;5.28;2.33;;;;;;;2.13;100.00;97465.09;5000221;28;20474;-86
2021/03/21 01:08:42;;;;;;;3.50;3.20;;;;;;;2.13;100.00;97434.31;5017119;28;20064;-86
2021/03/21 01:11:19;;;;;;;4.30;3.33;;;;;;;2.19;100.00;97454.38;5000295;28;20080;-86
2021/03/21 01:13:45;;;;;;;3.40;2.40;;;;;;;2.20;100.00;97458.75;5016463;28;20032;-85
2021/03/21 01:16:17;;;;;;;7.40;2.88;;;;;;;2.11;100.00;97466.94;5000256;28;20037;-85
2021/03/21 01:18:42;;;;;;;2.67;2.28;;;;;;;2.13;100.00;97446.63;4999869;28;20060;-85
2021/03/21 01:21:11;;;;;;;2.60;2.40;;;;;;;2.16;100.00;97457.09;4999590;28;20049;-86
2021/03/21 01:23:41;;;;;;;2.90;2.55;;;;;;;2.12;100.00;97435.22;5000367;28;20021;-86
2021/03/21 01:26:15;;;;;;;2.35;1.58;;;;;;;2.18;100.00;97460.56;4999897;28;20029;-86
2021/03/21 01:28:41;;;;;;;2.92;2.28;;;;;;;1.99;100.00;97430.38;5016251;28;20512;-86
2021/03/21 01:31:11;;;;;;;2.63;2.40;;;;;;;2.03;100.00;97458.41;5016347;28;20029;-87
2021/03/21 01:33:37;;;;;;;3.88;2.60;;;;;;;2.08;100.00;97456.47;4999559;28;20492;-86
2021/03/21 01:36:08;;;;;;;1.27;1.27;;;;;;;2.08;100.00;97448.56;5016101;28;20034;-86
2021/03/21 01:38:34;;;;;;;2.55;1.42;;;;;;;2.08;100.00;97441.53;4999177;28;20493;-86
2021/03/21 01:41:02;;;;;;;2.13;1.58;;;;;;;2.04;100.00;97433.72;5016186;28;20087;-86
2021/03/21 01:43:37;;;;;;;1.92;1.83;;;;;;;2.07;100.00;97423.09;5016494;28;20108;-85
2021/03/21 01:46:04;;;;;;;1.83;1.73;;;;;;;2.03;100.00;97434.66;5009262;28;20057;-85
2021/03/21 01:48:36;;;;;;;2.25;1.80;;;;;;;2.10;100.00;97436.19;5009067;28;20030;-84
2021/03/21 01:51:12;;;;;;;2.83;2.40;;;;;;;2.13;100.00;97454.56;5026660;28;20022;-85
2021/03/21 01:53:41;;;;;;;2.63;1.10;;;;;;;2.09;100.00;97474.03;5014924;28;20052;-85
2021/03/21 01:56:08;;;;;;;5.55;1.70;;;;;;;2.14;100.00;97467.72;4999453;28;20028;-85
2021/03/21 01:58:35;;;;;;;1.63;1.52;;;;;;;2.10;100.00;97467.84;5015549;28;20446;-85
2021/03/21 02:01:23;;;;;;;2.30;1.70;;;;;;;2.11;100.00;97448.47;4999250;28;20057;-85
2021/03/21 02:03:49;;;;;;;4.40;2.78;;;;;;;1.98;100.00;97436.56;5032632;28;20468;-86
2021/03/21 02:06:39;;;;;;;3.70;2.55;;;;;;;2.07;100.00;97436.28;4999249;28;20035;-85
2021/03/21 02:09:07;;;;;;;0.90;0.90;;;;;;;2.08;100.00;97419.56;4999389;28;20107;-84
2021/03/21 02:11:50;;;;;;;3.95;1.67;;;;;;;2.02;100.00;97417.97;5015240;28;20065;-84
2021/03/21 02:14:21;;;;;;;1.80;1.35;;;;;;;2.05;100.00;97433.69;5007720;28;20041;-86
2021/03/21 02:16:55;;;;;;;0.57;0.45;;;;;;;1.93;100.00;97417.38;5015395;28;20084;-84
2021/03/21 02:19:44;;;;;;;1.50;1.40;;;;;;;2.00;100.00;97443.50;5015207;28;20585;-84
2021/03/21 02:22:32;;;;;;;1.13;1.10;;;;;;;2.01;100.00;97428.56;5015191;28;20013;-86
2021/03/21 02:25:11;;;;;;;3.65;1.58;;;;;;;2.05;100.00;97432.84;4998683;28;20033;-86
2021/03/21 02:27:49;;;;;;;1.83;1.17;;;;;;;2.05;100.00;97411.72;4998875;28;20029;-83
2021/03/21 02:30:26;;;;;;;2.20;1.73;;;;;;;2.03;100.00;97421.47;4998798;28;20037;-86
2021/03/21 02:33:13;;;;;;;1.38;1.27;;;;;;;2.08;100.00;97422.19;4998781;28;20516;-85
2021/03/21 02:35:54;;;;;;;1.23;1.13;;;;;;;2.09;100.00;97432.69;5014983;28;20102;-86
2021/03/21 02:38:23;;;;;;;4.93;2.30;;;;;;;2.12;100.00;97410.66;4995874;28;20041;-86
2021/03/21 02:41:13;;;;;;;1.92;1.83;;;;;;;2.11;100.00;97422.09;5030512;28;20090;-86
2021/03/21 02:43:41;;;;;;;0.77;0.77;;;;;;;2.10;100.00;97428.28;5014425;28;20025;-85
2021/03/21 02:46:13;;;;;;;1.80;1.40;;;;;;;2.07;100.00;97425.72;5015072;28;20109;-86
2021/03/21 02:48:48;;;;;;;2.63;1.45;;;;;;;2.11;100.00;97408.91;5014569;28;20501;-85
2021/03/21 02:51:25;;;;;;;2.10;0.98;;;;;;;2.05;100.00;97417.88;5015221;28;20509;-86
2021/03/21 02:54:06;;;;;;;3.22;2.25;;;;;;;2.10;100.00;97415.94;4998474;28;20041;-86
2021/03/21 02:56:32;;;;;;;1.58;1.05;;;;;;;2.07;100.00;97431.00;5032649;28;20029;-86
2021/03/21 02:59:01;;;;;;;1.27;1.08;;;;;;;2.12;100.00;97429.94;4997935;28;20033;-85
2021/03/21 03:01:33;;;;;;;2.70;2.15;;;;;;;2.11;100.00;97424.72;5014342;28;20030;-86
2021/03/21 03:04:07;;;;;;;1.50;1.40;;;;;;;2.16;100.00;97433.34;4998181;28;20033;-86
2021/03/21 03:06:37;;;;;;;1.67;1.30;;;;;;;2.16;100.00;97399.94;4997953;28;20048;-87
2021/03/21 03:09:14;;;;;;;2.22;1.48;;;;;;;2.16;100.00;97434.22;4998066;28;20036;-86
2021/03/21 03:11:44;;;;;;;1.13;1.13;;;;;;;2.13;100.00;97410.59;4998370;28;20457;-86
2021/03/21 03:14:14;;;;;;;1.73;1.63;;;;;;;2.10;100.00;97399.25;5014735;28;20029;-86
2021/03/21 03:17:01;;;;;;;2.80;1.45;;;;;;;2.18;100.00;97405.19;4998484;28;20612;-86
2021/03/21 03:19:54;;;;;;;0.57;0.57;;;;;;;2.15;100.00;97414.03;5015072;28;20485;-87
2021/03/21 03:22:53;;;;;;;0.38;0.38;;;;;;;2.17;100.00;97409.59;4991839;28;20034;-86
2021/03/21 03:25:32;;;;;;;2.00;1.25;;;;;;;2.19;100.00;97420.06;4965332;28;20045;-86
2021/03/21 03:28:09;;;;;;;1.55;0.93;;;;;;;2.16;100.00;97399.94;4997561;28;20474;-85
2021/03/21 03:30:43;;;;;;;1.08;0.82;;;;;;;2.19;100.00;97413.03;4997793;28;20029;-85
2021/03/21 03:33:09;;;;;;;0.85;0.65;;;;;;;2.20;100.00;97411.25;5013565;28;20382;-87
2021/03/21 03:35:36;;;;;;;2.00;0.95;;;;;;;2.15;100.00;97400.00;5014427;28;20030;-86
2021/03/21 03:38:05;;;;;;;0.77;0.77;;;;;;;2.16;100.00;97397.28;5014208;28;20039;-85
2021/03/21 03:40:30;;;;;;;0.52;0.52;;;;;;;2.24;100.00;97398.84;4998230;28;20120;-86
2021/03/21 03:43:27;;;;;;;1.15;0.90;;;;;;;2.26;100.00;97399.63;4998031;28;20061;-85
2021/03/21 03:46:11;;;;;;;0.82;0.82;;;;;;;2.26;100.00;97399.63;5031930;28;20426;-86
2021/03/21 03:48:57;;;;;;;1.60;1.23;;;;;;;2.25;100.00;97395.25;5014515;28;20041;-86
2021/03/21 03:51:31;;;;;;;1.10;1.02;;;;;;;2.16;100.00;97393.78;4997831;28;20030;-86
2021/03/21 03:54:09;;;;;;;17.27;1.27;;;;;;;2.21;100.00;97405.06;4997748;28;20037;-86
2021/03/21 03:56:43;;;;;;;0.65;0.55;;;;;;;2.21;100.00;97407.72;5014234;28;20116;-86
2021/03/21 03:59:23;;;;;;;0.50;0.50;;;;;;;2.21;100.00;97399.81;5014460;28;20049;-87
2021/03/21 04:01:52;;;;;;;0.70;0.70;;;;;;;2.19;100.00;97398.97;4997615;28;20029;-86
2021/03/21 04:04:41;;;;;;;1.08;0.88;;;;;;;2.21;100.00;97405.06;5014035;28;20049;-86
2021/03/21 04:07:11;;;;;;;0.63;0.63;;;;;;;2.23;100.00;97421.72;5014021;28;20025;-85
2021/03/21 04:09:55;;;;;;;2.47;1.88;;;;;;;2.23;100.00;97428.75;4997681;28;20124;-85
2021/03/21 04:12:32;;;;;;;1.38;1.27;;;;;;;2.22;100.00;97427.88;5014719;28;20120;-85
2021/03/21 04:15:05;;;;;;;1.50;1.17;;;;;;;2.19;100.00;97422.72;5013757;28;20025;-85
2021/03/21 04:17:47;;;;;;;0.95;0.95;;;;;;;2.12;100.00;97413.28;4999330;28;20096;-86
2021/03/21 04:20:15;;;;;;;0.75;0.75;;;;;;;2.18;100.00;97419.19;5001314;28;20039;-86
2021/03/21 04:22:46;;;;;;;0.73;0.73;;;;;;;2.09;100.00;97406.31;5035128;28;20400;-86
2021/03/21 04:25:19;;;;;;;0.50;0.50;;;;;;;2.09;100.00;97408.09;5001333;28;20060;-85
2021/03/21 04:28:07;;;;;;;;;;;;;;;2.06;100.00;97413.47;5018414;28;20028;-86
2021/03/21 04:30:38;;;;;;;0.30;0.30;;;;;;;2.03;100.00;97408.28;5024206;28;20369;-86
2021/03/21 04:33:06;;;;;;;0.47;0.47;;;;;;;2.01;100.00;97410.09;5000927;28;20035;-86
2021/03/21 04:36:25;;;;;;;0.22;0.22;;;;;;;2.07;100.00;97415.19;5001441;28;20029;-86
2021/03/21 04:38:55;;;;;;;0.40;0.40;;;;;;;2.01;100.00;97404.81;4980182;28;20037;-86
2021/03/21 04:41:25;;;;;;;0.40;0.40;;;;;;;2.19;100.00;97422.72;5017463;28;20072;-85
2021/03/21 04:43:57;;;;;;;0.25;0.25;;;;;;;2.21;100.00;97423.53;5001817;28;20493;-86
2021/03/21 04:46:27;;;;;;;1.50;1.17;;;;;;;2.28;100.00;97424.22;4993170;28;20553;-86
2021/03/21 04:48:54;;;;;;;2.38;1.67;;;;;;;2.21;100.00;97413.00;5001556;28;20037;-84
2021/03/21 04:51:51;;;;;;;4.25;1.27;;;;;;;2.25;100.00;97414.59;5000698;28;20461;-85
2021/03/21 04:54:24;;;;;;;1.05;1.05;;;;;;;2.23;100.00;97405.00;4991405;28;20045;-87
2021/03/21 04:56:55;;;;;;;1.85;1.75;;;;;;;2.27;100.00;97418.06;5000889;28;20481;-86
2021/03/21 04:59:25;;;;;;;0.55;0.50;;;;;;;2.25;100.00;97411.97;5001111;28;20081;-87
2021/03/21 05:02:08;;;;;;;1.55;1.45;;;;;;;2.23;100.00;97410.28;5000731;28;20063;-86
2021/03/21 05:04:38;;;;;;;11.07;6.53;;;;;;;2.27;100.00;97422.47;5000835;28;20474;-87
2021/03/21 05:07:16;;;;;;;6.22;5.63;;;;;;;2.18;100.00;97413.09;5017002;28;20079;-87
2021/03/21 05:09:46;;;;;;;4.53;4.15;;;;;;;2.26;100.00;97418.97;5000637;28;20021;-87
2021/03/21 05:12:19;;;;;;;31.98;8.23;;;;;;;2.22;100.00;97414.69;5016084;28;20032;-85
2021/03/21 05:14:52;;;;;;;5.97;5.32;;;;;;;2.30;100.00;97417.97;5000776;28;20029;-86
2021/03/21 05:17:22;;;;;;;23.35;8.90;;;;;;;2.30;100.00;97412.72;5000873;28;20029;-87
2021/03/21 05:20:16;;;;;;;7.13;4.55;;;;;;;2.30;100.00;97414.47;5000640;28;20025;-86
2021/03/21 05:22:47;;;;;;;3.25;2.95;;;;;;;2.32;100.00;97420.56;5000218;28;20064;-86
2021/03/21 05:25:19;;;;;;;1.92;1.83;;;;;;;2.34;100.00;97409.03;5000140;28;20041;-86
2021/03/21 05:27:51;;;;;;;1.88;1.77;;;;;;;2.38;100.00;97409.81;5016795;28;20104;-86
2021/03/21 05:30:18;;;;;;;;;;;;;;;2.42;100.00;97406.16;4992928;28;20069;-87
2021/03/21 05:32:48;;;;;;;0.55;0.55;;;;;;;2.48;100.00;97409.47;5000486;28;20391;-87
2021/03/21 05:35:27;;;;;;;4.00;2.17;;;;;;;2.50;100.00;97399.72;5000959;28;20099;-87
2021/03/21 05:38:17;;;;;;;1.75;1.55;;;;;;;2.52;100.00;97392.59;5018136;28;20025;-87
2021/03/21 05:41:03;;;;;;;2.47;1.40;;;;;;;2.57;100.00;97382.78;5010285;28;20405;-87
2021/03/21 05:43:59;;;;;;;3.28;2.83;;;;;;;2.63;100.00;97379.94;5016578;28;20025;-87
2021/03/21 05:47:04;;;;;;;5.22;2.70;;;;;;;2.65;100.00;97380.72;5015989;28;20080;-87
2021/03/21 05:50:19;;;;;;;;;;;;;;;;;;;;;
2021/03/21 05:53:22;;;;;;;1.05;0.98;;;;;;;2.80;100.00;97397.00;5015580;28;20044;-86
2021/03/21 05:56:10;;;;;;;3.38;1.30;;;;;;;2.84;100.00;97403.88;5016254;28;20021;-85
2021/03/21 05:58:39;;;;;;;0.50;0.50;;;;;;;2.88;100.00;97411.66;5016436;28;20029;-87
2021/03/21 06:01:17;;;;;;;2.33;1.70;;;;;;;2.93;100.00;97408.84;5016341;28;20116;-87
2021/03/21 06:04:10;;;;;;;4.05;1.23;;;;;;;3.05;100.00;97427.78;5016341;28;20025;-86
2021/03/21 06:06:59;;;;;;;3.60;3.08;;;;;;;3.06;100.00;97418.09;5016245;28;20033;-87
2021/03/21 06:09:34;;;;;;;9.27;3.55;;;;;;;3.18;100.00;97422.94;5015608;28;20536;-87
2021/03/21 06:11:59;;;;;;;4.38;2.70;;;;;;;3.23;100.00;97413.09;5025628;28;20038;-87
2021/03/21 06:15:17;;;;;;;7.32;2.92;;;;;;;3.32;100.00;97418.06;5015570;28;20037;-87
2021/03/21 06:17:48;;;;;;;4.00;2.92;;;;;;;3.32;100.00;97430.41;4929963;28;20041;-87
2021/03/21 06:20:13;;;;;;;10.15;3.55;;;;;;;3.33;100.00;97434.75;4999370;28;20026;-86
2021/03/21 06:23:04;;;;;;;17.70;7.53;;;;;;;3.32;100.00;97433.03;5033612;28;20032;-86
2021/03/21 06:25:32;;;;;;;5.20;4.30;;;;;;;3.35;100.00;97414.44;5034061;28;20044;-86
2021/03/21 06:28:31;;;;;;;4.32;3.92;;;;;;;3.32;100.00;97415.41;5015749;28;20405;-86
2021/03/21 06:31:09;;;;;;;4.35;2.72;;;;;;;3.26;100.00;97410.34;5016056;28;20064;-86
2021/03/21 06:33:34;;;;;;;3.60;2.65;;;;;;;3.37;100.00;97416.09;5016013;28;20401;-87
2021/03/21 06:36:15;;;;;;;2.03;1.88;;;;;;;3.40;100.00;97399.25;5034061;28;20117;-90
2021/03/21 06:39:00;;;;;;;1.33;1.23;;;;;;;3.46;99.56;97410.47;5025134;28;20056;-91
2021/03/21 06:41:54;;;;;;;1.25;0.88;;;;;;;3.53;98.81;97411.13;5002343;28;20037;-90
2021/03/21 06:44:46;;;;;;;4.57;2.78;;;;;;;3.70;98.54;97428.09;5037237;28;20037;-91
2021/03/21 06:47:33;;;;;;;4.85;3.38;;;;;;;3.73;98.66;97441.19;5007256;28;20073;-89
2021/03/21 06:50:17;;;;;;;6.45;3.25;;;;;;;3.82;98.40;97448.78;5018183;28;20120;-91
2021/03/21 06:52:49;;;;;;;4.53;3.83;;;;;;;3.71;98.31;97450.13;5031747;28;20138;-89
2021/03/21 06:55:19;;;;;;;;;;;;;;;3.75;98.76;97452.56;5001924;28;20037;-87
2021/03/21 06:58:23;;;;;;;12.60;6.13;;;;;;;3.82;98.51;97453.22;4998951;28;19924;-89
2021/03/21 07:01:17;;;;;;;8.30;5.22;;;;;;;3.86;98.15;97448.69;5017046;28;20045;-89
2021/03/21 07:04:16;;;;;;;6.38;4.80;;;;;;;3.85;98.99;97439.88;5024559;28;20048;-89
2021/03/21 07:07:19;;;;;;;9.45;5.72;;;;;;;3.89;97.99;97438.00;5016616;28;20036;-88
2021/03/21 07:09:50;;;;;;;9.57;4.38;;;;;;;3.72;97.38;97436.81;5016629;28;20021;-78
2021/03/21 07:12:39;;;;;;;4.68;3.38;;;;;;;3.78;97.29;97438.41;5034970;28;20539;-89
2021/03/21 07:15:23;;;;;;;11.18;3.70;;;;;;;3.88;97.93;97436.28;5000745;28;20021;-74
2021/03/21 07:17:54;;;;;;;7.03;4.88;;;;;;;3.94;97.44;97434.25;5028081;28;20517;-74
2021/03/21 07:20:29;;;;;;;5.68;4.82;;;;;;;3.98;97.26;97425.28;5010755;28;20056;-75
2021/03/21 07:23:29;;;;;;;5.40;3.33;;;;;;;3.96;97.75;97428.91;5028022;28;20445;-76
2021/03/21 07:26:13;;;;;;;2.17;1.95;;;;;;;3.86;98.46;97431.03;5028119;28;20421;-76
2021/03/21 07:28:59;;;;;;;3.80;2.75;;;;;;;3.86;98.75;97424.88;5029684;28;20355;-83
2021/03/21 07:32:02;;;;;;;1.40;1.30;;;;;;;3.86;97.77;97424.88;5012012;28;20030;-84
2021/03/21 07:34:31;;;;;;;2.50;2.13;;;;;;;4.05;97.41;97415.34;5011902;28;20052;-86
2021/03/21 07:37:06;;;;;;;4.35;2.42;;;;;;;4.02;97.66;97404.88;5014551;28;20069;-84
2021/03/21 07:40:02;;;;;;;4.03;3.63;;;;;;;4.15;97.28;97419.34;5014353;28;20034;-85
2021/03/21 07:42:59;;;;;;;7.60;3.75;;;;;;;4.23;96.56;97419.91;4998520;28;20041;-85
2021/03/21 07:46:08;;;;;;;4.18;2.60;;;;;;;4.25;94.31;97418.06;4990643;28;20125;-85
2021/03/21 07:52:21;;;;;;;4.35;3.45;;;;;;;4.44;94.22;97413.75;4934042;28;20141;-84
2021/03/21 07:55:19;;;;;;;;;;;;;;;;;;;;;
2021/03/21 07:58:23;;;;;;;5.40;3.63;;;;;;;4.56;93.80;97413.28;4957534;28;20053;-86
2021/03/21 08:00:49;;;;;;;8.43;6.35;;;;;;;4.36;93.25;97374.38;4942674;28;20046;-82
2021/03/21 08:03:19;;;;;;;7.05;6.35;;;;;;;4.59;94.33;97404.34;4938985;28;20031;-81
2021/03/21 08:05:45;;;;;;;7.10;4.63;;;;;;;4.58;94.03;97400.84;4941155;28;20043;-85
2021/03/21 08:08:14;;;;;;;9.07;4.88;;;;;;;4.33;92.46;97352.44;4946528;28;20109;-87
2021/03/21 08:14:23;;;;;;;;;;;;;;;;;;;;;
2021/03/21 08:17:07;;;;;;;5.15;4.05;;;;;;;4.05;94.71;97325.38;5007774;28;20494;-86
2021/03/21 08:19:34;;;;;;;7.13;5.45;;;;;;;4.23;93.07;97345.78;5004770;28;20045;-85
2021/03/21 08:22:00;;;;;;;4.57;2.97;;;;;;;4.34;92.82;97388.56;4975230;28;20468;-85
2021/03/21 08:24:31;;;;;;;5.05;3.55;;;;;;;4.26;94.84;97374.78;4977099;28;20038;-85
2021/03/21 08:27:02;;;;;;;10.20;4.35;;;;;;;4.37;94.34;97373.44;4973548;28;20473;-84
2021/03/21 08:29:28;;;;;;;11.50;6.97;;;;;;;4.57;93.49;97375.28;4993138;28;20025;-85
2021/03/21 08:32:06;;;;;;;8.40;4.68;;;;;;;4.69;92.19;97374.78;4979684;28;20044;-85
2021/03/21 08:34:36;;;;;;;4.05;3.22;;;;;;;4.74;91.20;97378.06;4979742;28;20441;-86
2021/03/21 08:37:26;;;;;;;3.30;2.95;;;;;;;4.79;91.41;97368.16;4982123;28;20026;-88
2021/03/21 08:40:17;;;;;;;5.05;4.50;;;;;;;4.69;91.26;97361.53;4965813;28;20065;-89
2021/03/21 08:42:45;;;;;;;7.38;4.13;;;;;;;4.47;92.29;97347.44;4973829;28;20048;-88
2021/03/21 08:45:13;;;;;;;8.63;5.07;;;;;;;4.48;93.16;97361.56;4980690;28;20038;-88
2021/03/21 08:47:39;;;;;;;6.57;5.15;;;;;;;4.59;93.84;97348.72;5011099;28;20413;-86
2021/03/21 08:50:10;;;;;;;7.15;3.38;;;;;;;4.68;92.61;97343.91;5017256;28;20108;-89
2021/03/21 08:52:44;;;;;;;4.05;3.13;;;;;;;4.98;91.48;97357.66;5015696;28;20031;-87
2021/03/21 08:55:29;;;;;;;5.13;3.28;;;;;;;5.03;91.19;97333.59;5015499;28;20033;-88
2021/03/21 08:57:54;;;;;;;9.10;5.40;;;;;;;5.10;89.51;97348.31;4999972;28;20071;-87
2021/03/21 09:00:22;;;;;;;4.38;3.13;;;;;;;5.14;90.26;97348.09;5001371;28;20051;-88
2021/03/21 09:02:48;;;;;;;3.25;2.92;;;;;;;5.02;90.57;97322.13;5015312;28;20030;-88
2021/03/21 09:05:17;;;;;;;7.00;4.55;;;;;;;5.08;89.60;97318.34;4999941;28;20079;-88
2021/03/21 09:07:44;;;;;;;13.70;5.38;;;;;;;5.03;90.92;97288.53;5017350;28;20044;-88
2021/03/21 09:10:10;;;;;;;10.55;3.67;;;;;;;5.42;88.44;97358.34;4998740;28;20598;-89
2021/03/21 09:12:38;;;;;;;8.93;6.97;;;;;;;5.38;88.54;97324.94;5015897;28;20033;-88
2021/03/21 09:15:12;;;;;;;14.00;7.93;;;;;;;5.58;89.06;97353.22;5015728;28;20026;-88
2021/03/21 09:17:38;;;;;;;13.20;8.45;;;;;;;5.63;88.46;97333.50;5016060;28;20039;-86
2021/03/21 09:20:05;;;;;;;9.18;5.13;;;;;;;5.77;87.61;97349.66;4999803;28;20025;-86
2021/03/21 09:22:37;;;;;;;15.60;3.95;;;;;;;5.74;87.61;97333.88;4999687;28;20041;-88
2021/03/21 09:25:36;;;;;;;3.47;3.13;;;;;;;6.00;86.07;97327.38;4997850;28;20025;-76
2021/03/21 09:28:01;;;;;;;5.93;2.92;;;;;;;6.40;83.35;97334.28;4995494;28;20040;-75
2021/03/21 09:30:42;;;;;;;4.07;2.90;;;;;;;6.60;82.98;97320.03;5012559;28;20401;-75
2021/03/21 09:33:18;;;;;;;2.55;2.20;;;;;;;6.32;81.38;97320.53;5013071;28;20037;-78
2021/03/21 09:35:50;;;;;;;3.30;1.58;;;;;;;5.88;83.43;97312.88;5013256;28;20040;-77
2021/03/21 09:38:21;;;;;;;4.75;3.20;;;;;;;5.90;83.47;97305.75;4999586;28;20040;-78
2021/03/21 09:40:52;;;;;;;0.70;0.70;;;;;;;5.47;83.13;97298.00;5000162;28;20045;-77
2021/03/21 09:43:25;;;;;;;1.80;1.55;;;;;;;5.22;86.89;97292.97;4995569;28;20159;-75
2021/03/21 09:45:56;;;;;;;0.70;0.70;;;;;;;5.42;86.47;97308.81;5012019;28;20032;-75
2021/03/21 09:48:29;;;;;;;1.70;1.60;;;;;;;4.93;89.06;97299.53;5011865;28;20041;-76
2021/03/21 09:51:17;;;;;;;1.60;1.50;;;;;;;5.72;88.98;97306.53;5012323;28;20036;-76
2021/03/21 09:53:53;;;;;;;0.63;0.63;;;;;;;5.74;85.13;97290.56;5006510;28;20021;-75
2021/03/21 09:56:41;;;;;;;0.52;0.52;;;;;;;6.29;86.59;97299.41;4992178;28;20037;-76
2021/03/21 09:59:13;;;;;;;0.73;0.70;;;;;;;6.98;85.69;97318.97;5009757;28;20113;-77
2021/03/21 10:01:47;;;;;;;0.93;0.60;;;;;;;6.71;81.42;97307.03;4992138;28;20030;-75
2021/03/21 10:04:38;;;;;;;1.40;0.90;;;;;;;6.64;82.04;97311.84;5009491;28;20037;-75
2021/03/21 10:07:21;;;;;;;1.33;1.10;;;;;;;6.38;83.50;97315.78;4992410;28;20482;-75
2021/03/21 10:09:48;;;;;;;0.30;0.30;;;;;;;6.32;84.84;97318.72;4992100;28;20437;-75
2021/03/21 10:12:14;;;;;;;1.75;1.10;;;;;;;5.94;83.63;97325.88;4992262;28;20029;-75
2021/03/21 10:14:42;;;;;;;1.52;1.42;;;;;;;5.30;88.75;97327.06;4991201;28;20037;-75
2021/03/21 10:17:16;;;;;;;2.03;1.45;;;;;;;5.53;88.44;97326.03;4991916;28;20064;-76
2021/03/21 10:19:45;;;;;;;1.33;1.23;;;;;;;6.10;88.71;97322.47;4991796;28;20045;-76
2021/03/21 10:22:16;;;;;;;1.23;1.13;;;;;;;6.11;85.46;97306.50;5009637;28;20041;-75
2021/03/21 10:24:43;;;;;;;1.40;1.30;;;;;;;6.45;84.45;97311.03;5009593;28;20026;-76
2021/03/21 10:27:15;;;;;;;1.52;1.42;;;;;;;6.55;82.33;97318.44;4975504;28;20406;-75
2021/03/21 10:29:43;;;;;;;2.00;1.48;;;;;;;6.46;80.56;97318.06;5008846;28;20029;-75
2021/03/21 10:32:22;;;;;;;1.33;1.27;;;;;;;6.32;81.20;97308.09;4991544;28;20042;-75
2021/03/21 10:34:49;;;;;;;2.50;2.15;;;;;;;6.30;83.79;97295.84;4994536;28;20022;-76
2021/03/21 10:37:43;;;;;;;2.53;1.75;;;;;;;6.48;85.16;97305.56;5011188;28;20056;-76
2021/03/21 10:40:23;;;;;;;2.67;2.33;;;;;;;6.29;83.50;97300.28;5028958;28;20138;-75
2021/03/21 10:42:49;;;;;;;1.48;1.15;;;;;;;6.53;82.59;97303.53;5004044;28;20025;-75
2021/03/21 10:45:18;;;;;;;0.75;0.75;;;;;;;6.78;82.77;97304.00;5011989;28;20047;-76
2021/03/21 10:47:45;;;;;;;1.00;1.00;;;;;;;5.95;81.09;97301.06;5028488;28;20045;-76
2021/03/21 10:50:34;;;;;;;1.75;1.58;;;;;;;5.52;84.45;97290.69;4995036;28;20072;-85
2021/03/21 10:53:27;;;;;;;1.10;1.05;;;;;;;5.42;85.45;97290.25;5003322;28;20128;-77
2021/03/21 10:56:13;;;;;;;3.58;2.20;;;;;;;5.39;85.27;97285.09;5030950;28;20041;-75
2021/03/21 10:58:55;;;;;;;1.33;1.25;;;;;;;5.31;88.97;97281.06;5013195;28;20481;-75
2021/03/21 11:01:27;;;;;;;0.80;0.77;;;;;;;5.20;89.48;97280.72;5013762;28;20033;-76
2021/03/21 11:04:26;;;;;;;1.45;1.35;;;;;;;5.14;89.85;97262.41;5031339;28;20023;-76
2021/03/21 11:06:58;;;;;;;1.20;1.15;;;;;;;5.22;90.05;97273.53;4971192;28;20103;-76
2021/03/21 11:09:33;;;;;;;2.42;2.17;;;;;;;5.25;90.34;97249.53;5031188;28;20036;-78
2021/03/21 11:12:00;;;;;;;3.13;2.05;;;;;;;5.30;90.04;97250.16;5012558;28;20497;-78
2021/03/21 11:14:35;;;;;;;3.78;2.65;;;;;;;5.25;90.16;97249.53;5039596;28;20382;-78
2021/03/21 11:17:31;;;;;;;1.45;1.35;;;;;;;5.25;89.46;97241.59;5010524;28;20444;-77
2021/03/21 11:19:58;;;;;;;0.80;0.80;;;;;;;5.16;89.49;97248.16;4994410;28;20040;-75
2021/03/21 11:22:29;;;;;;;2.42;1.10;;;;;;;4.92;90.42;97257.22;5010598;28;20029;-75
2021/03/21 11:24:55;;;;;;;1.27;1.25;;;;;;;4.38;92.82;97244.56;5010275;28;20094;-76
2021/03/21 11:27:31;;;;;;;2.92;2.55;;;;;;;4.49;96.08;97233.53;5010183;28;20104;-76
2021/03/21 11:30:16;;;;;;;2.08;1.98;;;;;;;4.70;96.68;97241.41;5028394;28;20082;-78
2021/03/21 11:32:42;;;;;;;6.63;2.53;;;;;;;4.96;94.62;97231.41;5010328;28;20057;-78
2021/03/21 11:35:22;;;;;;;2.88;2.20;;;;;;;5.18;92.22;97227.75;5010832;28;20075;-78
2021/03/21 11:37:47;;;;;;;1.60;1.42;;;;;;;5.18;91.35;97233.03;4993954;28;20030;-77
2021/03/21 11:40:51;;;;;;;5.03;2.55;;;;;;;5.29;90.72;97229.91;4994760;28;20040;-85
2021/03/21 11:43:19;;;;;;;1.73;1.63;;;;;;;5.37;89.23;97227.75;4932009;29;20074;-77
2021/03/21 11:45:45;;;;;;;2.90;2.03;;;;;;;5.50;88.33;97217.44;5013767;28;20116;-77
2021/03/21 11:48:13;;;;;;;12.25;7.70;;;;;;;5.56;88.64;97225.97;5010140;28;20095;-76
2021/03/21 11:50:42;;;;;;;6.72;4.43;;;;;;;5.75;88.97;97224.13;5010155;28;20414;-76
2021/03/21 11:53:14;;;;;;;3.88;2.20;;;;;;;5.76;87.74;97207.28;4993998;28;20099;-77
2021/03/21 11:55:41;;;;;;;2.20;1.95;;;;;;;5.99;87.17;97212.38;5010349;28;20538;-76
2021/03/21 11:58:39;;;;;;;2.08;1.90;;;;;;;5.66;86.62;97203.34;4993556;28;20038;-76
2021/03/21 12:01:32;;;;;;;7.55;3.03;;;;;;;5.42;89.34;97205.38;5016825;28;20077;-76
2021/03/21 12:04:01;;;;;;;1.27;1.17;;;;;;;5.52;89.72;97204.94;4993637;28;20029;-76
2021/03/21 12:06:32;;;;;;;1.48;0.88;;;;;;;5.45;89.09;97197.28;5010192;28;20104;-76
2021/03/21 12:08:59;;;;;;;0.70;0.70;;;;;;;5.34;89.54;97190.78;5010184;28;20029;-83
2021/03/21 12:11:24;;;;;;;1.27;0.80;;;;;;;5.36;89.15;97186.25;5010716;28;20457;-83
2021/03/21 12:13:51;;;;;;;1.17;0.95;;;;;;;5.31;88.34;97175.00;5027610;28;20064;-83
2021/03/21 12:16:40;;;;;;;1.55;1.38;;;;;;;5.48;88.84;97178.56;4994305;28;20029;-83
2021/03/21 12:19:12;;;;;;;2.70;2.20;;;;;;;5.39;91.29;97170.19;4994103;28;20024;-83
2021/03/21 12:21:39;;;;;;;0.65;0.65;;;;;;;5.21;89.41;97153.38;5011039;28;20025;-83
2021/03/21 12:24:12;;;;;;;7.18;1.15;;;;;;;5.41;86.47;97140.00;4994222;28;20076;-83
2021/03/21 12:26:44;;;;;;;4.57;2.30;;;;;;;5.80;87.02;97158.47;4994112;28;20029;-78
2021/03/21 12:29:25;;;;;;;3.70;1.88;;;;;;;5.81;88.61;97151.34;5027403;28;20119;-77